Weather at Camp Balanik Heliport

Public forecast

Using degrees Celsius for public forecast. Weather courtesy of forecast.io.

Closest aviation weather report (METAR) to Camp Balanik Heliport

Closest report is Larissa Air Base, 27.8 nm (51.4 km) S.

2024/05/28 15:50 (retrieved 43 minutes ago)

LGLR 281550Z 10005KT 9999 FEW035 SCT080 26/11 Q1011 RMK FEW180 BLU

Closest aviation forecast (TAF) to Camp Balanik Heliport

Closest forecast is Thessaloniki Macedonia International Airport, 32.1 nm (59.5 km) NE.

2024/05/28 12:13 (retrieved 4 hours ago)

TAF LGTS 281100Z 2812/2912 17013KT 9999 FEW025 PROB30 TEMPO 2814/2820 5000 TSRA FEW015CB BKN025 BECMG 2820/2822 VRB03KT